<?xml version="1.0" encoding="UTF-8" standalone="no" ?>
<gpx xmlns="http://www.topografix.com/GPX/1/1" xmlns:xsi="http://www.w3.org/2001/XMLSchema-instance" xsi:schemaLocation="http://www.topografix.com/GPX/1/1 http://www.topografix.com/GPX/1/1/gpx.xsd" version="1.1" creator="VisuGPX - https://www.visugpx.com">
  <metadata>
    <name>pointe d\\\'ardens - Chablais</name>
    <desc><![CDATA[pointe d\\\'ardens - Chablais]]></desc>
  </metadata>
  <trk>
    <name><![CDATA[2013-01-26 08:42]]></name>
    <desc><![CDATA[<h1>OruxMaps</h1><br /><hr align="center" width="480" style="height: 2px; width: 517px"/><h2>Nom: 2013-01-26 08:42</h2><br /><p>Temps de départ: 01/26/2013 08:43</p><p>Temps d'arrivée: 01/26/2013 10:57</p><p>Distance: 8,5 km (02:13)</p><p>Temps déplacement: 01:31</p><p>Vitesse moyenne: 3,8 km/h</p><p>Vitesse moyenne: 5,6 km/h</p><p>Vitess Max.: 43,7 km/h</p><p>Altitude minimale: 1258 m</p><p>Altitude maximale: 2016 m</p><p>Vitesse d'élévation: 500,4 m/h</p><p>Vitesse de descente: -1135,8 m/h</p><p>Gain Altitude: 762 m</p><p>Perte Altitude: -732 m</p><p>Temps d'élévation: 01:31</p><p>Temps de descente: 00:38</p><hr align="center" width="480" style="height: 2px; width: 517px"/>]]></desc>
    <trkseg>
      <trkpt lat="46.2478" lon="6.75501">
        <ele>1258.1</ele>
        <time>2013-01-26T07:43:34Z</time>
      </trkpt>
      <trkpt lat="46.24764" lon="6.75513">
        <ele>1258.919</ele>
        <time>2013-01-26T07:47:55Z</time>
      </trkpt>
      <trkpt lat="46.24746" lon="6.7552">
        <ele>1262.2177</ele>
        <time>2013-01-26T07:48:14Z</time>
      </trkpt>
      <trkpt lat="46.24729" lon="6.75529">
        <ele>1264.1235</ele>
        <time>2013-01-26T07:48:34Z</time>
      </trkpt>
      <trkpt lat="46.24711" lon="6.75533">
        <ele>1264.6547</ele>
        <time>2013-01-26T07:48:53Z</time>
      </trkpt>
      <trkpt lat="46.24693" lon="6.75534">
        <ele>1267.1742</ele>
        <time>2013-01-26T07:49:11Z</time>
      </trkpt>
      <trkpt lat="46.24675" lon="6.75542">
        <ele>1270.3425</ele>
        <time>2013-01-26T07:49:29Z</time>
      </trkpt>
      <trkpt lat="46.24659" lon="6.75554">
        <ele>1273.1312</ele>
        <time>2013-01-26T07:49:48Z</time>
      </trkpt>
      <trkpt lat="46.24642" lon="6.75564">
        <ele>1275.5328</ele>
        <time>2013-01-26T07:50:08Z</time>
      </trkpt>
      <trkpt lat="46.24625" lon="6.75571">
        <ele>1279.2413</ele>
        <time>2013-01-26T07:51:51Z</time>
      </trkpt>
      <trkpt lat="46.24607" lon="6.75577">
        <ele>1281.2356</ele>
        <time>2013-01-26T07:52:09Z</time>
      </trkpt>
      <trkpt lat="46.24588" lon="6.7558">
        <ele>1282.6191</ele>
        <time>2013-01-26T07:52:27Z</time>
      </trkpt>
      <trkpt lat="46.24569" lon="6.75579">
        <ele>1285.595</ele>
        <time>2013-01-26T07:52:46Z</time>
      </trkpt>
      <trkpt lat="46.24551" lon="6.75577">
        <ele>1288.0214</ele>
        <time>2013-01-26T07:53:04Z</time>
      </trkpt>
      <trkpt lat="46.24533" lon="6.75573">
        <ele>1290.1401</ele>
        <time>2013-01-26T07:53:22Z</time>
      </trkpt>
      <trkpt lat="46.24515" lon="6.75569">
        <ele>1291.8484</ele>
        <time>2013-01-26T07:53:40Z</time>
      </trkpt>
      <trkpt lat="46.24497" lon="6.75564">
        <ele>1293.7014</ele>
        <time>2013-01-26T07:53:58Z</time>
      </trkpt>
      <trkpt lat="46.24478" lon="6.75558">
        <ele>1296.8683</ele>
        <time>2013-01-26T07:54:17Z</time>
      </trkpt>
      <trkpt lat="46.24461" lon="6.75552">
        <ele>1299.3159</ele>
        <time>2013-01-26T07:54:36Z</time>
      </trkpt>
      <trkpt lat="46.24444" lon="6.75543">
        <ele>1299.4106</ele>
        <time>2013-01-26T07:54:54Z</time>
      </trkpt>
      <trkpt lat="46.24429" lon="6.75527">
        <ele>1299.8217</ele>
        <time>2013-01-26T07:55:13Z</time>
      </trkpt>
      <trkpt lat="46.24419" lon="6.75506">
        <ele>1301.4082</ele>
        <time>2013-01-26T07:55:31Z</time>
      </trkpt>
      <trkpt lat="46.2441" lon="6.75482">
        <ele>1304.0793</ele>
        <time>2013-01-26T07:55:50Z</time>
      </trkpt>
      <trkpt lat="46.24396" lon="6.75468">
        <ele>1305.9021</ele>
        <time>2013-01-26T07:56:08Z</time>
      </trkpt>
      <trkpt lat="46.24378" lon="6.75478">
        <ele>1308.2177</ele>
        <time>2013-01-26T07:56:25Z</time>
      </trkpt>
      <trkpt lat="46.24359" lon="6.75483">
        <ele>1308.2148</ele>
        <time>2013-01-26T07:56:41Z</time>
      </trkpt>
      <trkpt lat="46.24342" lon="6.75478">
        <ele>1308.2181</ele>
        <time>2013-01-26T07:56:54Z</time>
      </trkpt>
      <trkpt lat="46.24329" lon="6.75459">
        <ele>1309.1152</ele>
        <time>2013-01-26T07:57:11Z</time>
      </trkpt>
      <trkpt lat="46.24318" lon="6.75436">
        <ele>1310.6119</ele>
        <time>2013-01-26T07:57:25Z</time>
      </trkpt>
      <trkpt lat="46.24303" lon="6.75419">
        <ele>1312.0764</ele>
        <time>2013-01-26T07:57:41Z</time>
      </trkpt>
      <trkpt lat="46.24293" lon="6.75395">
        <ele>1314.5895</ele>
        <time>2013-01-26T07:57:57Z</time>
      </trkpt>
      <trkpt lat="46.24282" lon="6.75373">
        <ele>1315.2037</ele>
        <time>2013-01-26T07:58:15Z</time>
      </trkpt>
      <trkpt lat="46.24271" lon="6.75351">
        <ele>1316.9916</ele>
        <time>2013-01-26T07:58:29Z</time>
      </trkpt>
      <trkpt lat="46.24255" lon="6.75336">
        <ele>1316.0541</ele>
        <time>2013-01-26T07:58:48Z</time>
      </trkpt>
      <trkpt lat="46.24245" lon="6.75315">
        <ele>1317.11</ele>
        <time>2013-01-26T07:59:09Z</time>
      </trkpt>
      <trkpt lat="46.24239" lon="6.7529">
        <ele>1318.4252</ele>
        <time>2013-01-26T07:59:27Z</time>
      </trkpt>
      <trkpt lat="46.2423" lon="6.75266">
        <ele>1320.8021</ele>
        <time>2013-01-26T07:59:45Z</time>
      </trkpt>
      <trkpt lat="46.24216" lon="6.75248">
        <ele>1322.4711</ele>
        <time>2013-01-26T07:59:59Z</time>
      </trkpt>
      <trkpt lat="46.24207" lon="6.75225">
        <ele>1323.2947</ele>
        <time>2013-01-26T08:00:14Z</time>
      </trkpt>
      <trkpt lat="46.24197" lon="6.75203">
        <ele>1323.64</ele>
        <time>2013-01-26T08:00:30Z</time>
      </trkpt>
      <trkpt lat="46.24192" lon="6.75177">
        <ele>1325.0017</ele>
        <time>2013-01-26T08:00:45Z</time>
      </trkpt>
      <trkpt lat="46.24179" lon="6.75157">
        <ele>1326.8011</ele>
        <time>2013-01-26T08:01:03Z</time>
      </trkpt>
      <trkpt lat="46.24167" lon="6.75136">
        <ele>1328.7322</ele>
        <time>2013-01-26T08:01:19Z</time>
      </trkpt>
      <trkpt lat="46.2416" lon="6.75111">
        <ele>1329.5281</ele>
        <time>2013-01-26T08:01:22Z</time>
      </trkpt>
      <trkpt lat="46.24152" lon="6.75086">
        <ele>1331.5886</ele>
        <time>2013-01-26T08:01:35Z</time>
      </trkpt>
      <trkpt lat="46.24144" lon="6.75062">
        <ele>1333.9009</ele>
        <time>2013-01-26T08:01:50Z</time>
      </trkpt>
      <trkpt lat="46.24135" lon="6.75038">
        <ele>1335.7804</ele>
        <time>2013-01-26T08:02:07Z</time>
      </trkpt>
      <trkpt lat="46.24129" lon="6.75014">
        <ele>1335.3461</ele>
        <time>2013-01-26T08:02:25Z</time>
      </trkpt>
      <trkpt lat="46.24124" lon="6.74988">
        <ele>1333.8065</ele>
        <time>2013-01-26T08:02:40Z</time>
      </trkpt>
      <trkpt lat="46.2411" lon="6.74971">
        <ele>1335.0431</ele>
        <time>2013-01-26T08:03:28Z</time>
      </trkpt>
      <trkpt lat="46.24094" lon="6.74956">
        <ele>1335.703</ele>
        <time>2013-01-26T08:03:42Z</time>
      </trkpt>
      <trkpt lat="46.24079" lon="6.74943">
        <ele>1336.2504</ele>
        <time>2013-01-26T08:03:58Z</time>
      </trkpt>
      <trkpt lat="46.24063" lon="6.74928">
        <ele>1336.6307</ele>
        <time>2013-01-26T08:04:13Z</time>
      </trkpt>
      <trkpt lat="46.24045" lon="6.74924">
        <ele>1334.4056</ele>
        <time>2013-01-26T08:04:30Z</time>
      </trkpt>
      <trkpt lat="46.24026" lon="6.7492">
        <ele>1336.6584</ele>
        <time>2013-01-26T08:04:48Z</time>
      </trkpt>
      <trkpt lat="46.24009" lon="6.74913">
        <ele>1338.5664</ele>
        <time>2013-01-26T08:05:04Z</time>
      </trkpt>
      <trkpt lat="46.2399" lon="6.74913">
        <ele>1337.7495</ele>
        <time>2013-01-26T08:05:23Z</time>
      </trkpt>
      <trkpt lat="46.23972" lon="6.74907">
        <ele>1337.7516</ele>
        <time>2013-01-26T08:05:44Z</time>
      </trkpt>
      <trkpt lat="46.23961" lon="6.74887">
        <ele>1340.9197</ele>
        <time>2013-01-26T08:06:04Z</time>
      </trkpt>
      <trkpt lat="46.23945" lon="6.74873">
        <ele>1345.312</ele>
        <time>2013-01-26T08:06:22Z</time>
      </trkpt>
      <trkpt lat="46.23929" lon="6.7486">
        <ele>1348.3937</ele>
        <time>2013-01-26T08:06:42Z</time>
      </trkpt>
      <trkpt lat="46.23911" lon="6.74852">
        <ele>1349.1903</ele>
        <time>2013-01-26T08:07:07Z</time>
      </trkpt>
      <trkpt lat="46.23893" lon="6.74846">
        <ele>1353.1688</ele>
        <time>2013-01-26T08:07:29Z</time>
      </trkpt>
      <trkpt lat="46.23875" lon="6.74841">
        <ele>1355.284</ele>
        <time>2013-01-26T08:07:50Z</time>
      </trkpt>
      <trkpt lat="46.23856" lon="6.74842">
        <ele>1359.3212</ele>
        <time>2013-01-26T08:08:13Z</time>
      </trkpt>
      <trkpt lat="46.23838" lon="6.74842">
        <ele>1363.192</ele>
        <time>2013-01-26T08:08:34Z</time>
      </trkpt>
      <trkpt lat="46.2382" lon="6.74849">
        <ele>1368.7557</ele>
        <time>2013-01-26T08:08:57Z</time>
      </trkpt>
      <trkpt lat="46.23804" lon="6.74861">
        <ele>1373.4082</ele>
        <time>2013-01-26T08:09:19Z</time>
      </trkpt>
      <trkpt lat="46.23788" lon="6.74872">
        <ele>1376.8784</ele>
        <time>2013-01-26T08:09:40Z</time>
      </trkpt>
      <trkpt lat="46.23774" lon="6.74889">
        <ele>1380.0391</ele>
        <time>2013-01-26T08:10:01Z</time>
      </trkpt>
      <trkpt lat="46.23759" lon="6.74905">
        <ele>1380.7983</ele>
        <time>2013-01-26T08:10:21Z</time>
      </trkpt>
      <trkpt lat="46.23741" lon="6.74902">
        <ele>1379.5503</ele>
        <time>2013-01-26T08:10:48Z</time>
      </trkpt>
      <trkpt lat="46.23731" lon="6.74881">
        <ele>1382.7963</ele>
        <time>2013-01-26T08:11:10Z</time>
      </trkpt>
      <trkpt lat="46.23736" lon="6.74855">
        <ele>1384.859</ele>
        <time>2013-01-26T08:11:41Z</time>
      </trkpt>
      <trkpt lat="46.23738" lon="6.74829">
        <ele>1386.5687</ele>
        <time>2013-01-26T08:12:02Z</time>
      </trkpt>
      <trkpt lat="46.23727" lon="6.74807">
        <ele>1391.0669</ele>
        <time>2013-01-26T08:12:23Z</time>
      </trkpt>
      <trkpt lat="46.23716" lon="6.74785">
        <ele>1394.8428</ele>
        <time>2013-01-26T08:12:43Z</time>
      </trkpt>
      <trkpt lat="46.23705" lon="6.74764">
        <ele>1396.9535</ele>
        <time>2013-01-26T08:13:00Z</time>
      </trkpt>
      <trkpt lat="46.23695" lon="6.74742">
        <ele>1398.7065</ele>
        <time>2013-01-26T08:13:20Z</time>
      </trkpt>
      <trkpt lat="46.23686" lon="6.74718">
        <ele>1400.44</ele>
        <time>2013-01-26T08:13:42Z</time>
      </trkpt>
      <trkpt lat="46.23675" lon="6.74697">
        <ele>1404.0077</ele>
        <time>2013-01-26T08:14:04Z</time>
      </trkpt>
      <trkpt lat="46.2366" lon="6.74681">
        <ele>1408.3518</ele>
        <time>2013-01-26T08:14:23Z</time>
      </trkpt>
      <trkpt lat="46.23644" lon="6.74666">
        <ele>1412.1207</ele>
        <time>2013-01-26T08:14:46Z</time>
      </trkpt>
      <trkpt lat="46.23637" lon="6.74642">
        <ele>1416.6117</ele>
        <time>2013-01-26T08:15:09Z</time>
      </trkpt>
      <trkpt lat="46.23624" lon="6.74623">
        <ele>1420.4462</ele>
        <time>2013-01-26T08:15:31Z</time>
      </trkpt>
      <trkpt lat="46.23609" lon="6.74607">
        <ele>1422.0428</ele>
        <time>2013-01-26T08:15:55Z</time>
      </trkpt>
      <trkpt lat="46.23593" lon="6.74595">
        <ele>1424.3597</ele>
        <time>2013-01-26T08:16:17Z</time>
      </trkpt>
      <trkpt lat="46.23577" lon="6.74583">
        <ele>1427.3167</ele>
        <time>2013-01-26T08:16:39Z</time>
      </trkpt>
      <trkpt lat="46.23561" lon="6.74569">
        <ele>1431.848</ele>
        <time>2013-01-26T08:17:04Z</time>
      </trkpt>
      <trkpt lat="46.23543" lon="6.74561">
        <ele>1436.4401</ele>
        <time>2013-01-26T08:17:29Z</time>
      </trkpt>
      <trkpt lat="46.23526" lon="6.74551">
        <ele>1439.9675</ele>
        <time>2013-01-26T08:17:56Z</time>
      </trkpt>
      <trkpt lat="46.23508" lon="6.74542">
        <ele>1444.2899</ele>
        <time>2013-01-26T08:18:26Z</time>
      </trkpt>
      <trkpt lat="46.23493" lon="6.74528">
        <ele>1450.6313</ele>
        <time>2013-01-26T08:18:55Z</time>
      </trkpt>
      <trkpt lat="46.2348" lon="6.7451">
        <ele>1454.689</ele>
        <time>2013-01-26T08:19:17Z</time>
      </trkpt>
      <trkpt lat="46.23467" lon="6.74491">
        <ele>1461.3397</ele>
        <time>2013-01-26T08:19:43Z</time>
      </trkpt>
      <trkpt lat="46.23449" lon="6.74489">
        <ele>1469.9412</ele>
        <time>2013-01-26T08:20:14Z</time>
      </trkpt>
      <trkpt lat="46.23434" lon="6.74508">
        <ele>1476.5677</ele>
        <time>2013-01-26T08:20:44Z</time>
      </trkpt>
      <trkpt lat="46.23424" lon="6.7453">
        <ele>1484.302</ele>
        <time>2013-01-26T08:21:09Z</time>
      </trkpt>
      <trkpt lat="46.23406" lon="6.74536">
        <ele>1488.4886</ele>
        <time>2013-01-26T08:22:03Z</time>
      </trkpt>
      <trkpt lat="46.23388" lon="6.74537">
        <ele>1495.0376</ele>
        <time>2013-01-26T08:22:35Z</time>
      </trkpt>
      <trkpt lat="46.23373" lon="6.74554">
        <ele>1505.7567</ele>
        <time>2013-01-26T08:23:11Z</time>
      </trkpt>
      <trkpt lat="46.23355" lon="6.7455">
        <ele>1513.2135</ele>
        <time>2013-01-26T08:23:51Z</time>
      </trkpt>
      <trkpt lat="46.23343" lon="6.7453">
        <ele>1522.1735</ele>
        <time>2013-01-26T08:25:06Z</time>
      </trkpt>
      <trkpt lat="46.23327" lon="6.7454">
        <ele>1534.8075</ele>
        <time>2013-01-26T08:25:59Z</time>
      </trkpt>
      <trkpt lat="46.23316" lon="6.74561">
        <ele>1540.6268</ele>
        <time>2013-01-26T08:26:27Z</time>
      </trkpt>
      <trkpt lat="46.23302" lon="6.74543">
        <ele>1543.3566</ele>
        <time>2013-01-26T08:27:10Z</time>
      </trkpt>
      <trkpt lat="46.2329" lon="6.74524">
        <ele>1547.1318</ele>
        <time>2013-01-26T08:27:39Z</time>
      </trkpt>
      <trkpt lat="46.23277" lon="6.74505">
        <ele>1549.7885</ele>
        <time>2013-01-26T08:28:09Z</time>
      </trkpt>
      <trkpt lat="46.23263" lon="6.74488">
        <ele>1555.2523</ele>
        <time>2013-01-26T08:28:39Z</time>
      </trkpt>
      <trkpt lat="46.2325" lon="6.74469">
        <ele>1563.3359</ele>
        <time>2013-01-26T08:29:05Z</time>
      </trkpt>
      <trkpt lat="46.2324" lon="6.74448">
        <ele>1572.3776</ele>
        <time>2013-01-26T08:29:33Z</time>
      </trkpt>
      <trkpt lat="46.23229" lon="6.74427">
        <ele>1579.0234</ele>
        <time>2013-01-26T08:30:14Z</time>
      </trkpt>
      <trkpt lat="46.23216" lon="6.74408">
        <ele>1582.2865</ele>
        <time>2013-01-26T08:30:41Z</time>
      </trkpt>
      <trkpt lat="46.23206" lon="6.74387">
        <ele>1590.2328</ele>
        <time>2013-01-26T08:31:10Z</time>
      </trkpt>
      <trkpt lat="46.23194" lon="6.74366">
        <ele>1597.0095</ele>
        <time>2013-01-26T08:31:43Z</time>
      </trkpt>
      <trkpt lat="46.23182" lon="6.74347">
        <ele>1604.9348</ele>
        <time>2013-01-26T08:32:18Z</time>
      </trkpt>
      <trkpt lat="46.23164" lon="6.74342">
        <ele>1621.9391</ele>
        <time>2013-01-26T08:33:17Z</time>
      </trkpt>
      <trkpt lat="46.23152" lon="6.74362">
        <ele>1626.4958</ele>
        <time>2013-01-26T08:33:47Z</time>
      </trkpt>
      <trkpt lat="46.23144" lon="6.74339">
        <ele>1633.7642</ele>
        <time>2013-01-26T08:34:17Z</time>
      </trkpt>
      <trkpt lat="46.23142" lon="6.74313">
        <ele>1639.4034</ele>
        <time>2013-01-26T08:34:41Z</time>
      </trkpt>
      <trkpt lat="46.23132" lon="6.74291">
        <ele>1644.0319</ele>
        <time>2013-01-26T08:35:07Z</time>
      </trkpt>
      <trkpt lat="46.23114" lon="6.7429">
        <ele>1649.5363</ele>
        <time>2013-01-26T08:35:47Z</time>
      </trkpt>
      <trkpt lat="46.23102" lon="6.74271">
        <ele>1656.5668</ele>
        <time>2013-01-26T08:36:15Z</time>
      </trkpt>
      <trkpt lat="46.23102" lon="6.74245">
        <ele>1667.3656</ele>
        <time>2013-01-26T08:36:49Z</time>
      </trkpt>
      <trkpt lat="46.23108" lon="6.7422">
        <ele>1669.923</ele>
        <time>2013-01-26T08:37:11Z</time>
      </trkpt>
      <trkpt lat="46.23103" lon="6.74195">
        <ele>1671.2183</ele>
        <time>2013-01-26T08:37:27Z</time>
      </trkpt>
      <trkpt lat="46.23099" lon="6.7417">
        <ele>1674.5854</ele>
        <time>2013-01-26T08:37:46Z</time>
      </trkpt>
      <trkpt lat="46.23093" lon="6.74145">
        <ele>1676.5884</ele>
        <time>2013-01-26T08:38:07Z</time>
      </trkpt>
      <trkpt lat="46.23092" lon="6.74118">
        <ele>1680.3279</ele>
        <time>2013-01-26T08:38:32Z</time>
      </trkpt>
      <trkpt lat="46.23094" lon="6.74092">
        <ele>1686.1641</ele>
        <time>2013-01-26T08:44:45Z</time>
      </trkpt>
      <trkpt lat="46.231" lon="6.74067">
        <ele>1689.6016</ele>
        <time>2013-01-26T08:45:07Z</time>
      </trkpt>
      <trkpt lat="46.23105" lon="6.74042">
        <ele>1693.7336</ele>
        <time>2013-01-26T08:45:30Z</time>
      </trkpt>
      <trkpt lat="46.23111" lon="6.74016">
        <ele>1698.0504</ele>
        <time>2013-01-26T08:45:52Z</time>
      </trkpt>
      <trkpt lat="46.23117" lon="6.73992">
        <ele>1700.9532</ele>
        <time>2013-01-26T08:46:12Z</time>
      </trkpt>
      <trkpt lat="46.23123" lon="6.73966">
        <ele>1704.2666</ele>
        <time>2013-01-26T08:46:31Z</time>
      </trkpt>
      <trkpt lat="46.23128" lon="6.73941">
        <ele>1706.7312</ele>
        <time>2013-01-26T08:46:50Z</time>
      </trkpt>
      <trkpt lat="46.23135" lon="6.73917">
        <ele>1710.7557</ele>
        <time>2013-01-26T08:47:13Z</time>
      </trkpt>
      <trkpt lat="46.23143" lon="6.73893">
        <ele>1714.1816</ele>
        <time>2013-01-26T08:47:38Z</time>
      </trkpt>
      <trkpt lat="46.23154" lon="6.73872">
        <ele>1718.7799</ele>
        <time>2013-01-26T08:48:06Z</time>
      </trkpt>
      <trkpt lat="46.23166" lon="6.73853">
        <ele>1725.059</ele>
        <time>2013-01-26T08:48:37Z</time>
      </trkpt>
      <trkpt lat="46.23178" lon="6.73833">
        <ele>1730.3787</ele>
        <time>2013-01-26T08:49:04Z</time>
      </trkpt>
      <trkpt lat="46.23188" lon="6.73811">
        <ele>1734.7441</ele>
        <time>2013-01-26T08:49:35Z</time>
      </trkpt>
      <trkpt lat="46.23202" lon="6.73794">
        <ele>1740.3993</ele>
        <time>2013-01-26T08:50:03Z</time>
      </trkpt>
      <trkpt lat="46.23218" lon="6.73809">
        <ele>1746.5664</ele>
        <time>2013-01-26T08:50:46Z</time>
      </trkpt>
      <trkpt lat="46.23226" lon="6.73832">
        <ele>1749.6567</ele>
        <time>2013-01-26T08:51:10Z</time>
      </trkpt>
      <trkpt lat="46.23238" lon="6.73812">
        <ele>1759.0898</ele>
        <time>2013-01-26T08:51:32Z</time>
      </trkpt>
      <trkpt lat="46.23249" lon="6.73833">
        <ele>1764.1855</ele>
        <time>2013-01-26T08:52:10Z</time>
      </trkpt>
      <trkpt lat="46.23253" lon="6.73859">
        <ele>1765.7976</ele>
        <time>2013-01-26T08:53:07Z</time>
      </trkpt>
      <trkpt lat="46.23264" lon="6.73879">
        <ele>1772.2512</ele>
        <time>2013-01-26T08:53:34Z</time>
      </trkpt>
      <trkpt lat="46.23281" lon="6.7389">
        <ele>1778.6272</ele>
        <time>2013-01-26T08:54:04Z</time>
      </trkpt>
      <trkpt lat="46.23295" lon="6.73872">
        <ele>1790.4309</ele>
        <time>2013-01-26T08:54:55Z</time>
      </trkpt>
      <trkpt lat="46.23311" lon="6.7386">
        <ele>1795.3639</ele>
        <time>2013-01-26T08:55:22Z</time>
      </trkpt>
      <trkpt lat="46.23318" lon="6.73836">
        <ele>1803.4432</ele>
        <time>2013-01-26T08:56:09Z</time>
      </trkpt>
      <trkpt lat="46.23333" lon="6.73821">
        <ele>1808.0394</ele>
        <time>2013-01-26T08:56:34Z</time>
      </trkpt>
      <trkpt lat="46.23349" lon="6.73808">
        <ele>1812.043</ele>
        <time>2013-01-26T08:56:57Z</time>
      </trkpt>
      <trkpt lat="46.23366" lon="6.73797">
        <ele>1816.3766</ele>
        <time>2013-01-26T08:57:22Z</time>
      </trkpt>
      <trkpt lat="46.23381" lon="6.73782">
        <ele>1820.1346</ele>
        <time>2013-01-26T08:57:43Z</time>
      </trkpt>
      <trkpt lat="46.23397" lon="6.73769">
        <ele>1822.7346</ele>
        <time>2013-01-26T08:58:04Z</time>
      </trkpt>
      <trkpt lat="46.23413" lon="6.73755">
        <ele>1825.5214</ele>
        <time>2013-01-26T08:58:24Z</time>
      </trkpt>
      <trkpt lat="46.23431" lon="6.73754">
        <ele>1826.6925</ele>
        <time>2013-01-26T08:58:41Z</time>
      </trkpt>
      <trkpt lat="46.23446" lon="6.73769">
        <ele>1828.3165</ele>
        <time>2013-01-26T08:59:00Z</time>
      </trkpt>
      <trkpt lat="46.23465" lon="6.73772">
        <ele>1831.5205</ele>
        <time>2013-01-26T08:59:19Z</time>
      </trkpt>
      <trkpt lat="46.23482" lon="6.73763">
        <ele>1833.7427</ele>
        <time>2013-01-26T08:59:33Z</time>
      </trkpt>
      <trkpt lat="46.23498" lon="6.73752">
        <ele>1834.1245</ele>
        <time>2013-01-26T08:59:47Z</time>
      </trkpt>
      <trkpt lat="46.23515" lon="6.73762">
        <ele>1834.2828</ele>
        <time>2013-01-26T09:00:17Z</time>
      </trkpt>
      <trkpt lat="46.23533" lon="6.73755">
        <ele>1835.3975</ele>
        <time>2013-01-26T09:00:41Z</time>
      </trkpt>
      <trkpt lat="46.2355" lon="6.73749">
        <ele>1840.0591</ele>
        <time>2013-01-26T09:01:02Z</time>
      </trkpt>
      <trkpt lat="46.23568" lon="6.73743">
        <ele>1845.1483</ele>
        <time>2013-01-26T09:01:25Z</time>
      </trkpt>
      <trkpt lat="46.23586" lon="6.73738">
        <ele>1849.7931</ele>
        <time>2013-01-26T09:01:43Z</time>
      </trkpt>
      <trkpt lat="46.23605" lon="6.73737">
        <ele>1856.1012</ele>
        <time>2013-01-26T09:02:22Z</time>
      </trkpt>
      <trkpt lat="46.23619" lon="6.73719">
        <ele>1861.1509</ele>
        <time>2013-01-26T09:02:41Z</time>
      </trkpt>
      <trkpt lat="46.23633" lon="6.73702">
        <ele>1862.6808</ele>
        <time>2013-01-26T09:02:56Z</time>
      </trkpt>
      <trkpt lat="46.23648" lon="6.73687">
        <ele>1866.4724</ele>
        <time>2013-01-26T09:03:14Z</time>
      </trkpt>
      <trkpt lat="46.23664" lon="6.73676">
        <ele>1868.962</ele>
        <time>2013-01-26T09:03:38Z</time>
      </trkpt>
      <trkpt lat="46.23678" lon="6.73659">
        <ele>1870.6196</ele>
        <time>2013-01-26T09:03:58Z</time>
      </trkpt>
      <trkpt lat="46.23691" lon="6.7364">
        <ele>1872.2482</ele>
        <time>2013-01-26T09:04:16Z</time>
      </trkpt>
      <trkpt lat="46.23704" lon="6.73659">
        <ele>1873.8455</ele>
        <time>2013-01-26T09:04:44Z</time>
      </trkpt>
      <trkpt lat="46.23722" lon="6.7366">
        <ele>1878.9924</ele>
        <time>2013-01-26T09:05:26Z</time>
      </trkpt>
      <trkpt lat="46.2374" lon="6.7366">
        <ele>1889.0321</ele>
        <time>2013-01-26T09:06:24Z</time>
      </trkpt>
      <trkpt lat="46.23754" lon="6.73642">
        <ele>1895.1106</ele>
        <time>2013-01-26T09:06:49Z</time>
      </trkpt>
      <trkpt lat="46.23769" lon="6.73626">
        <ele>1901.2571</ele>
        <time>2013-01-26T09:07:11Z</time>
      </trkpt>
      <trkpt lat="46.23784" lon="6.7361">
        <ele>1906.027</ele>
        <time>2013-01-26T09:07:36Z</time>
      </trkpt>
      <trkpt lat="46.23801" lon="6.73598">
        <ele>1910.1279</ele>
        <time>2013-01-26T09:07:58Z</time>
      </trkpt>
      <trkpt lat="46.23818" lon="6.73588">
        <ele>1914.6635</ele>
        <time>2013-01-26T09:08:18Z</time>
      </trkpt>
      <trkpt lat="46.23836" lon="6.73579">
        <ele>1919.0262</ele>
        <time>2013-01-26T09:08:39Z</time>
      </trkpt>
      <trkpt lat="46.23854" lon="6.73573">
        <ele>1922.747</ele>
        <time>2013-01-26T09:08:58Z</time>
      </trkpt>
      <trkpt lat="46.23872" lon="6.73566">
        <ele>1924.7692</ele>
        <time>2013-01-26T09:09:15Z</time>
      </trkpt>
      <trkpt lat="46.2389" lon="6.73559">
        <ele>1927.6124</ele>
        <time>2013-01-26T09:09:35Z</time>
      </trkpt>
      <trkpt lat="46.23908" lon="6.73553">
        <ele>1931.9113</ele>
        <time>2013-01-26T09:09:55Z</time>
      </trkpt>
      <trkpt lat="46.23927" lon="6.73553">
        <ele>1935.7139</ele>
        <time>2013-01-26T09:10:21Z</time>
      </trkpt>
      <trkpt lat="46.23946" lon="6.73551">
        <ele>1938.9692</ele>
        <time>2013-01-26T09:10:47Z</time>
      </trkpt>
      <trkpt lat="46.23964" lon="6.73549">
        <ele>1942.7178</ele>
        <time>2013-01-26T09:11:09Z</time>
      </trkpt>
      <trkpt lat="46.23983" lon="6.73551">
        <ele>1946.7096</ele>
        <time>2013-01-26T09:11:35Z</time>
      </trkpt>
      <trkpt lat="46.24" lon="6.73556">
        <ele>1950.3925</ele>
        <time>2013-01-26T09:12:03Z</time>
      </trkpt>
      <trkpt lat="46.24017" lon="6.73568">
        <ele>1953.859</ele>
        <time>2013-01-26T09:12:33Z</time>
      </trkpt>
      <trkpt lat="46.24034" lon="6.73558">
        <ele>1961.3447</ele>
        <time>2013-01-26T09:13:08Z</time>
      </trkpt>
      <trkpt lat="46.24052" lon="6.7355">
        <ele>1968.614</ele>
        <time>2013-01-26T09:13:38Z</time>
      </trkpt>
      <trkpt lat="46.24067" lon="6.73565">
        <ele>1975.186</ele>
        <time>2013-01-26T09:14:13Z</time>
      </trkpt>
      <trkpt lat="46.24076" lon="6.73588">
        <ele>1982.5751</ele>
        <time>2013-01-26T09:14:46Z</time>
      </trkpt>
      <trkpt lat="46.24085" lon="6.73611">
        <ele>1988.2394</ele>
        <time>2013-01-26T09:15:17Z</time>
      </trkpt>
      <trkpt lat="46.24091" lon="6.73637">
        <ele>1998.5121</ele>
        <time>2013-01-26T09:15:52Z</time>
      </trkpt>
      <trkpt lat="46.24108" lon="6.73646">
        <ele>2006.9401</ele>
        <time>2013-01-26T09:16:20Z</time>
      </trkpt>
      <trkpt lat="46.24126" lon="6.73653">
        <ele>2009.4326</ele>
        <time>2013-01-26T09:16:36Z</time>
      </trkpt>
      <trkpt lat="46.24144" lon="6.73658">
        <ele>2011.913</ele>
        <time>2013-01-26T09:16:55Z</time>
      </trkpt>
      <trkpt lat="46.24161" lon="6.73667">
        <ele>2015.345</ele>
        <time>2013-01-26T09:17:17Z</time>
      </trkpt>
      <trkpt lat="46.2418" lon="6.73668">
        <ele>2016.773</ele>
        <time>2013-01-26T09:17:37Z</time>
      </trkpt>
      <trkpt lat="46.24198" lon="6.73664">
        <ele>2016.6102</ele>
        <time>2013-01-26T09:17:52Z</time>
      </trkpt>
      <trkpt lat="46.2418" lon="6.73667">
        <ele>2012.0858</ele>
        <time>2013-01-26T09:25:44Z</time>
      </trkpt>
      <trkpt lat="46.24162" lon="6.73667">
        <ele>2015.5424</ele>
        <time>2013-01-26T09:35:28Z</time>
      </trkpt>
      <trkpt lat="46.24142" lon="6.73658">
        <ele>2014.2719</ele>
        <time>2013-01-26T09:35:38Z</time>
      </trkpt>
      <trkpt lat="46.24124" lon="6.73652">
        <ele>2013.4036</ele>
        <time>2013-01-26T09:35:42Z</time>
      </trkpt>
      <trkpt lat="46.24107" lon="6.73644">
        <ele>2010.8853</ele>
        <time>2013-01-26T09:35:56Z</time>
      </trkpt>
      <trkpt lat="46.24089" lon="6.73636">
        <ele>2007.5325</ele>
        <time>2013-01-26T09:36:42Z</time>
      </trkpt>
      <trkpt lat="46.24074" lon="6.73616">
        <ele>2005.462</ele>
        <time>2013-01-26T09:36:50Z</time>
      </trkpt>
      <trkpt lat="46.2407" lon="6.73583">
        <ele>2003.2368</ele>
        <time>2013-01-26T09:36:54Z</time>
      </trkpt>
      <trkpt lat="46.24067" lon="6.73551">
        <ele>2001.325</ele>
        <time>2013-01-26T09:36:57Z</time>
      </trkpt>
      <trkpt lat="46.24058" lon="6.73524">
        <ele>1999.3917</ele>
        <time>2013-01-26T09:37:00Z</time>
      </trkpt>
      <trkpt lat="46.24041" lon="6.73506">
        <ele>1996.9277</ele>
        <time>2013-01-26T09:37:03Z</time>
      </trkpt>
      <trkpt lat="46.24021" lon="6.73503">
        <ele>1986.1395</ele>
        <time>2013-01-26T09:37:28Z</time>
      </trkpt>
      <trkpt lat="46.23998" lon="6.73491">
        <ele>1983.3613</ele>
        <time>2013-01-26T09:37:32Z</time>
      </trkpt>
      <trkpt lat="46.23976" lon="6.73484">
        <ele>1981.0994</ele>
        <time>2013-01-26T09:37:35Z</time>
      </trkpt>
      <trkpt lat="46.23953" lon="6.73484">
        <ele>1978.5122</ele>
        <time>2013-01-26T09:37:38Z</time>
      </trkpt>
      <trkpt lat="46.23929" lon="6.73488">
        <ele>1974.688</ele>
        <time>2013-01-26T09:37:41Z</time>
      </trkpt>
      <trkpt lat="46.23912" lon="6.73474">
        <ele>1969.1809</ele>
        <time>2013-01-26T09:37:44Z</time>
      </trkpt>
      <trkpt lat="46.23908" lon="6.73444">
        <ele>1959.0885</ele>
        <time>2013-01-26T09:37:48Z</time>
      </trkpt>
      <trkpt lat="46.23913" lon="6.73418">
        <ele>1932.8823</ele>
        <time>2013-01-26T09:38:57Z</time>
      </trkpt>
      <trkpt lat="46.23896" lon="6.73401">
        <ele>1930.4988</ele>
        <time>2013-01-26T09:39:00Z</time>
      </trkpt>
      <trkpt lat="46.23876" lon="6.73404">
        <ele>1926.6172</ele>
        <time>2013-01-26T09:39:04Z</time>
      </trkpt>
      <trkpt lat="46.23869" lon="6.73438">
        <ele>1923.345</ele>
        <time>2013-01-26T09:39:08Z</time>
      </trkpt>
      <trkpt lat="46.23857" lon="6.73461">
        <ele>1921.2377</ele>
        <time>2013-01-26T09:39:11Z</time>
      </trkpt>
      <trkpt lat="46.2384" lon="6.73486">
        <ele>1918.9019</ele>
        <time>2013-01-26T09:39:14Z</time>
      </trkpt>
      <trkpt lat="46.23822" lon="6.73505">
        <ele>1915.3368</ele>
        <time>2013-01-26T09:39:17Z</time>
      </trkpt>
      <trkpt lat="46.23803" lon="6.73516">
        <ele>1911.4733</ele>
        <time>2013-01-26T09:39:20Z</time>
      </trkpt>
      <trkpt lat="46.23785" lon="6.73514">
        <ele>1906.6685</ele>
        <time>2013-01-26T09:39:24Z</time>
      </trkpt>
      <trkpt lat="46.23766" lon="6.73513">
        <ele>1898.8125</ele>
        <time>2013-01-26T09:39:30Z</time>
      </trkpt>
      <trkpt lat="46.2375" lon="6.73527">
        <ele>1889.2057</ele>
        <time>2013-01-26T09:39:42Z</time>
      </trkpt>
      <trkpt lat="46.2373" lon="6.73539">
        <ele>1883.2562</ele>
        <time>2013-01-26T09:39:49Z</time>
      </trkpt>
      <trkpt lat="46.23708" lon="6.73547">
        <ele>1879.7139</ele>
        <time>2013-01-26T09:39:53Z</time>
      </trkpt>
      <trkpt lat="46.23689" lon="6.73546">
        <ele>1877.3278</ele>
        <time>2013-01-26T09:39:56Z</time>
      </trkpt>
      <trkpt lat="46.23669" lon="6.73548">
        <ele>1874.5757</ele>
        <time>2013-01-26T09:39:59Z</time>
      </trkpt>
      <trkpt lat="46.2365" lon="6.73558">
        <ele>1871.8022</ele>
        <time>2013-01-26T09:40:02Z</time>
      </trkpt>
      <trkpt lat="46.23626" lon="6.73571">
        <ele>1870.0557</ele>
        <time>2013-01-26T09:40:05Z</time>
      </trkpt>
      <trkpt lat="46.23608" lon="6.73581">
        <ele>1869.3063</ele>
        <time>2013-01-26T09:40:07Z</time>
      </trkpt>
      <trkpt lat="46.23591" lon="6.73591">
        <ele>1868.5847</ele>
        <time>2013-01-26T09:40:09Z</time>
      </trkpt>
      <trkpt lat="46.23571" lon="6.73602">
        <ele>1867.1794</ele>
        <time>2013-01-26T09:40:12Z</time>
      </trkpt>
      <trkpt lat="46.2355" lon="6.73617">
        <ele>1864.872</ele>
        <time>2013-01-26T09:40:16Z</time>
      </trkpt>
      <trkpt lat="46.23531" lon="6.73632">
        <ele>1861.7329</ele>
        <time>2013-01-26T09:40:20Z</time>
      </trkpt>
      <trkpt lat="46.23514" lon="6.73648">
        <ele>1858.6342</ele>
        <time>2013-01-26T09:40:23Z</time>
      </trkpt>
      <trkpt lat="46.23495" lon="6.73664">
        <ele>1855.7488</ele>
        <time>2013-01-26T09:40:26Z</time>
      </trkpt>
      <trkpt lat="46.23476" lon="6.73674">
        <ele>1852.9878</ele>
        <time>2013-01-26T09:40:29Z</time>
      </trkpt>
      <trkpt lat="46.23459" lon="6.73664">
        <ele>1845.859</ele>
        <time>2013-01-26T09:40:33Z</time>
      </trkpt>
      <trkpt lat="46.23438" lon="6.73661">
        <ele>1838.5261</ele>
        <time>2013-01-26T09:40:38Z</time>
      </trkpt>
      <trkpt lat="46.2342" lon="6.73664">
        <ele>1835.7126</ele>
        <time>2013-01-26T09:40:41Z</time>
      </trkpt>
      <trkpt lat="46.234" lon="6.73664">
        <ele>1833.3413</ele>
        <time>2013-01-26T09:40:44Z</time>
      </trkpt>
      <trkpt lat="46.23378" lon="6.73662">
        <ele>1814.5193</ele>
        <time>2013-01-26T09:41:42Z</time>
      </trkpt>
      <trkpt lat="46.23357" lon="6.73673">
        <ele>1812.5409</ele>
        <time>2013-01-26T09:41:45Z</time>
      </trkpt>
      <trkpt lat="46.23334" lon="6.73681">
        <ele>1811.0204</ele>
        <time>2013-01-26T09:41:48Z</time>
      </trkpt>
      <trkpt lat="46.2331" lon="6.73687">
        <ele>1809.8773</ele>
        <time>2013-01-26T09:41:51Z</time>
      </trkpt>
      <trkpt lat="46.23285" lon="6.73692">
        <ele>1809.0013</ele>
        <time>2013-01-26T09:41:54Z</time>
      </trkpt>
      <trkpt lat="46.2326" lon="6.73692">
        <ele>1808.2272</ele>
        <time>2013-01-26T09:41:57Z</time>
      </trkpt>
      <trkpt lat="46.23235" lon="6.73699">
        <ele>1807.5974</ele>
        <time>2013-01-26T09:42:00Z</time>
      </trkpt>
      <trkpt lat="46.23216" lon="6.73718">
        <ele>1806.463</ele>
        <time>2013-01-26T09:42:03Z</time>
      </trkpt>
      <trkpt lat="46.23205" lon="6.73744">
        <ele>1803.3125</ele>
        <time>2013-01-26T09:42:06Z</time>
      </trkpt>
      <trkpt lat="46.23186" lon="6.73758">
        <ele>1796.6608</ele>
        <time>2013-01-26T09:42:12Z</time>
      </trkpt>
      <trkpt lat="46.23174" lon="6.73783">
        <ele>1778.9307</ele>
        <time>2013-01-26T09:43:12Z</time>
      </trkpt>
      <trkpt lat="46.23162" lon="6.73806">
        <ele>1776.6504</ele>
        <time>2013-01-26T09:43:16Z</time>
      </trkpt>
      <trkpt lat="46.23158" lon="6.73832">
        <ele>1773.9491</ele>
        <time>2013-01-26T09:43:20Z</time>
      </trkpt>
      <trkpt lat="46.23157" lon="6.73864">
        <ele>1770.0604</ele>
        <time>2013-01-26T09:43:25Z</time>
      </trkpt>
      <trkpt lat="46.23153" lon="6.73892">
        <ele>1763.188</ele>
        <time>2013-01-26T09:43:36Z</time>
      </trkpt>
      <trkpt lat="46.23144" lon="6.73916">
        <ele>1760.1646</ele>
        <time>2013-01-26T09:43:46Z</time>
      </trkpt>
      <trkpt lat="46.23145" lon="6.73943">
        <ele>1759.133</ele>
        <time>2013-01-26T09:43:51Z</time>
      </trkpt>
      <trkpt lat="46.23147" lon="6.7397">
        <ele>1756.9585</ele>
        <time>2013-01-26T09:43:55Z</time>
      </trkpt>
      <trkpt lat="46.23138" lon="6.73999">
        <ele>1754.7692</ele>
        <time>2013-01-26T09:44:00Z</time>
      </trkpt>
      <trkpt lat="46.23083" lon="6.74165">
        <ele>1671.5249</ele>
        <time>2013-01-26T09:44:25Z</time>
      </trkpt>
      <trkpt lat="46.23108" lon="6.7419">
        <ele>1676.0686</ele>
        <time>2013-01-26T09:44:45Z</time>
      </trkpt>
      <trkpt lat="46.23109" lon="6.74218">
        <ele>1681.1027</ele>
        <time>2013-01-26T09:44:53Z</time>
      </trkpt>
      <trkpt lat="46.23108" lon="6.74246">
        <ele>1679.0929</ele>
        <time>2013-01-26T09:45:03Z</time>
      </trkpt>
      <trkpt lat="46.23111" lon="6.74276">
        <ele>1678.855</ele>
        <time>2013-01-26T09:45:09Z</time>
      </trkpt>
      <trkpt lat="46.23122" lon="6.74301">
        <ele>1677.8107</ele>
        <time>2013-01-26T09:45:12Z</time>
      </trkpt>
      <trkpt lat="46.2313" lon="6.74332">
        <ele>1676.2783</ele>
        <time>2013-01-26T09:45:16Z</time>
      </trkpt>
      <trkpt lat="46.23137" lon="6.74357">
        <ele>1675.3127</ele>
        <time>2013-01-26T09:45:19Z</time>
      </trkpt>
      <trkpt lat="46.23148" lon="6.74384">
        <ele>1674.0837</ele>
        <time>2013-01-26T09:45:23Z</time>
      </trkpt>
      <trkpt lat="46.23157" lon="6.74407">
        <ele>1672.8159</ele>
        <time>2013-01-26T09:45:27Z</time>
      </trkpt>
      <trkpt lat="46.23164" lon="6.74431">
        <ele>1671.7687</ele>
        <time>2013-01-26T09:45:31Z</time>
      </trkpt>
      <trkpt lat="46.23166" lon="6.74459">
        <ele>1671.179</ele>
        <time>2013-01-26T09:45:36Z</time>
      </trkpt>
      <trkpt lat="46.23167" lon="6.74486">
        <ele>1669.7031</ele>
        <time>2013-01-26T09:45:45Z</time>
      </trkpt>
      <trkpt lat="46.23177" lon="6.7451">
        <ele>1667.7607</ele>
        <time>2013-01-26T09:45:54Z</time>
      </trkpt>
      <trkpt lat="46.23189" lon="6.7453">
        <ele>1666.4668</ele>
        <time>2013-01-26T09:45:59Z</time>
      </trkpt>
      <trkpt lat="46.23201" lon="6.74552">
        <ele>1665.2617</ele>
        <time>2013-01-26T09:46:03Z</time>
      </trkpt>
      <trkpt lat="46.23214" lon="6.74572">
        <ele>1663.8079</ele>
        <time>2013-01-26T09:46:07Z</time>
      </trkpt>
      <trkpt lat="46.23226" lon="6.74592">
        <ele>1658.5383</ele>
        <time>2013-01-26T09:46:32Z</time>
      </trkpt>
      <trkpt lat="46.23232" lon="6.74619">
        <ele>1650.9938</ele>
        <time>2013-01-26T09:47:22Z</time>
      </trkpt>
      <trkpt lat="46.23244" lon="6.74648">
        <ele>1648.4353</ele>
        <time>2013-01-26T09:47:27Z</time>
      </trkpt>
      <trkpt lat="46.23256" lon="6.74676">
        <ele>1645.8944</ele>
        <time>2013-01-26T09:47:32Z</time>
      </trkpt>
      <trkpt lat="46.23269" lon="6.74697">
        <ele>1643.6989</ele>
        <time>2013-01-26T09:47:37Z</time>
      </trkpt>
      <trkpt lat="46.23275" lon="6.74722">
        <ele>1641.7935</ele>
        <time>2013-01-26T09:47:42Z</time>
      </trkpt>
      <trkpt lat="46.23322" lon="6.74779">
        <ele>1616.3999</ele>
        <time>2013-01-26T09:48:21Z</time>
      </trkpt>
      <trkpt lat="46.23386" lon="6.74766">
        <ele>1590.2</ele>
        <time>2013-01-26T09:48:40Z</time>
      </trkpt>
      <trkpt lat="46.23399" lon="6.74786">
        <ele>1528.0508</ele>
        <time>2013-01-26T09:49:20Z</time>
      </trkpt>
      <trkpt lat="46.23416" lon="6.74803">
        <ele>1526.0587</ele>
        <time>2013-01-26T09:49:25Z</time>
      </trkpt>
      <trkpt lat="46.23431" lon="6.74817">
        <ele>1524.4349</ele>
        <time>2013-01-26T09:49:29Z</time>
      </trkpt>
      <trkpt lat="46.23451" lon="6.74815">
        <ele>1521.7632</ele>
        <time>2013-01-26T09:49:34Z</time>
      </trkpt>
      <trkpt lat="46.2347" lon="6.74805">
        <ele>1519.1744</ele>
        <time>2013-01-26T09:49:39Z</time>
      </trkpt>
      <trkpt lat="46.23488" lon="6.74785">
        <ele>1516.7997</ele>
        <time>2013-01-26T09:49:43Z</time>
      </trkpt>
      <trkpt lat="46.23499" lon="6.74765">
        <ele>1514.7389</ele>
        <time>2013-01-26T09:49:46Z</time>
      </trkpt>
      <trkpt lat="46.2351" lon="6.74792">
        <ele>1501.2324</ele>
        <time>2013-01-26T09:50:18Z</time>
      </trkpt>
      <trkpt lat="46.23524" lon="6.74812">
        <ele>1496.5999</ele>
        <time>2013-01-26T09:50:24Z</time>
      </trkpt>
      <trkpt lat="46.23545" lon="6.74811">
        <ele>1493.1016</ele>
        <time>2013-01-26T09:50:29Z</time>
      </trkpt>
      <trkpt lat="46.23563" lon="6.74806">
        <ele>1490.7319</ele>
        <time>2013-01-26T09:50:32Z</time>
      </trkpt>
      <trkpt lat="46.23585" lon="6.7481">
        <ele>1487.0038</ele>
        <time>2013-01-26T09:50:36Z</time>
      </trkpt>
      <trkpt lat="46.23606" lon="6.74821">
        <ele>1482.5787</ele>
        <time>2013-01-26T09:50:41Z</time>
      </trkpt>
      <trkpt lat="46.2362" lon="6.74836">
        <ele>1479.5679</ele>
        <time>2013-01-26T09:50:45Z</time>
      </trkpt>
      <trkpt lat="46.23638" lon="6.74846">
        <ele>1464.3447</ele>
        <time>2013-01-26T09:51:14Z</time>
      </trkpt>
      <trkpt lat="46.23659" lon="6.74844">
        <ele>1459.7361</ele>
        <time>2013-01-26T09:51:18Z</time>
      </trkpt>
      <trkpt lat="46.23682" lon="6.74852">
        <ele>1455.6278</ele>
        <time>2013-01-26T09:51:22Z</time>
      </trkpt>
      <trkpt lat="46.23703" lon="6.74856">
        <ele>1451.5475</ele>
        <time>2013-01-26T09:51:26Z</time>
      </trkpt>
      <trkpt lat="46.23714" lon="6.74835">
        <ele>1446.3171</ele>
        <time>2013-01-26T09:51:31Z</time>
      </trkpt>
      <trkpt lat="46.23733" lon="6.74829">
        <ele>1442.0527</ele>
        <time>2013-01-26T09:51:35Z</time>
      </trkpt>
      <trkpt lat="46.2375" lon="6.74841">
        <ele>1438.0214</ele>
        <time>2013-01-26T09:51:39Z</time>
      </trkpt>
      <trkpt lat="46.23756" lon="6.74866">
        <ele>1433.4132</ele>
        <time>2013-01-26T09:51:44Z</time>
      </trkpt>
      <trkpt lat="46.23759" lon="6.74894">
        <ele>1431.2993</ele>
        <time>2013-01-26T09:51:47Z</time>
      </trkpt>
      <trkpt lat="46.23764" lon="6.74919">
        <ele>1428.3209</ele>
        <time>2013-01-26T09:51:51Z</time>
      </trkpt>
      <trkpt lat="46.23782" lon="6.74919">
        <ele>1423.0812</ele>
        <time>2013-01-26T09:51:57Z</time>
      </trkpt>
      <trkpt lat="46.23803" lon="6.74905">
        <ele>1418.3724</ele>
        <time>2013-01-26T09:52:02Z</time>
      </trkpt>
      <trkpt lat="46.23822" lon="6.74888">
        <ele>1415.8915</ele>
        <time>2013-01-26T09:52:05Z</time>
      </trkpt>
      <trkpt lat="46.23842" lon="6.74874">
        <ele>1413.0214</ele>
        <time>2013-01-26T09:52:08Z</time>
      </trkpt>
      <trkpt lat="46.23857" lon="6.74854">
        <ele>1408.7228</ele>
        <time>2013-01-26T09:52:12Z</time>
      </trkpt>
      <trkpt lat="46.23878" lon="6.74864">
        <ele>1400.9443</ele>
        <time>2013-01-26T09:52:19Z</time>
      </trkpt>
      <trkpt lat="46.23896" lon="6.74881">
        <ele>1396.823</ele>
        <time>2013-01-26T09:52:23Z</time>
      </trkpt>
      <trkpt lat="46.23909" lon="6.7486">
        <ele>1383.4573</ele>
        <time>2013-01-26T09:52:45Z</time>
      </trkpt>
      <trkpt lat="46.23928" lon="6.74853">
        <ele>1373.3344</ele>
        <time>2013-01-26T09:52:59Z</time>
      </trkpt>
      <trkpt lat="46.23947" lon="6.74865">
        <ele>1369.2184</ele>
        <time>2013-01-26T09:53:05Z</time>
      </trkpt>
      <trkpt lat="46.23969" lon="6.74876">
        <ele>1366.657</ele>
        <time>2013-01-26T09:53:09Z</time>
      </trkpt>
      <trkpt lat="46.23981" lon="6.74898">
        <ele>1363.8069</ele>
        <time>2013-01-26T09:53:14Z</time>
      </trkpt>
      <trkpt lat="46.23997" lon="6.74914">
        <ele>1361.5931</ele>
        <time>2013-01-26T09:53:18Z</time>
      </trkpt>
      <trkpt lat="46.24022" lon="6.74923">
        <ele>1359.5592</ele>
        <time>2013-01-26T09:53:22Z</time>
      </trkpt>
      <trkpt lat="46.24048" lon="6.74926">
        <ele>1357.964</ele>
        <time>2013-01-26T09:53:25Z</time>
      </trkpt>
      <trkpt lat="46.2407" lon="6.74934">
        <ele>1356.3755</ele>
        <time>2013-01-26T09:53:28Z</time>
      </trkpt>
      <trkpt lat="46.24088" lon="6.74944">
        <ele>1354.0352</ele>
        <time>2013-01-26T09:53:32Z</time>
      </trkpt>
      <trkpt lat="46.24109" lon="6.74944">
        <ele>1350.7205</ele>
        <time>2013-01-26T09:53:38Z</time>
      </trkpt>
      <trkpt lat="46.24124" lon="6.74959">
        <ele>1348.1871</ele>
        <time>2013-01-26T09:53:44Z</time>
      </trkpt>
      <trkpt lat="46.24135" lon="6.74981">
        <ele>1345.3035</ele>
        <time>2013-01-26T09:53:51Z</time>
      </trkpt>
      <trkpt lat="46.24138" lon="6.7501">
        <ele>1342.4451</ele>
        <time>2013-01-26T09:53:59Z</time>
      </trkpt>
      <trkpt lat="46.24146" lon="6.75035">
        <ele>1340.138</ele>
        <time>2013-01-26T09:54:06Z</time>
      </trkpt>
      <trkpt lat="46.24155" lon="6.75064">
        <ele>1338.753</ele>
        <time>2013-01-26T09:54:12Z</time>
      </trkpt>
      <trkpt lat="46.2416" lon="6.7509">
        <ele>1338.027</ele>
        <time>2013-01-26T09:54:18Z</time>
      </trkpt>
      <trkpt lat="46.24167" lon="6.75116">
        <ele>1336.3234</ele>
        <time>2013-01-26T09:54:25Z</time>
      </trkpt>
      <trkpt lat="46.24177" lon="6.75141">
        <ele>1334.2872</ele>
        <time>2013-01-26T09:54:33Z</time>
      </trkpt>
      <trkpt lat="46.24189" lon="6.7516">
        <ele>1331.2577</ele>
        <time>2013-01-26T09:54:41Z</time>
      </trkpt>
      <trkpt lat="46.242" lon="6.75183">
        <ele>1328.7355</ele>
        <time>2013-01-26T09:54:51Z</time>
      </trkpt>
      <trkpt lat="46.24204" lon="6.7521">
        <ele>1327.9052</ele>
        <time>2013-01-26T09:55:03Z</time>
      </trkpt>
      <trkpt lat="46.24214" lon="6.75235">
        <ele>1327.6705</ele>
        <time>2013-01-26T09:55:11Z</time>
      </trkpt>
      <trkpt lat="46.24228" lon="6.75254">
        <ele>1327.0355</ele>
        <time>2013-01-26T09:55:20Z</time>
      </trkpt>
      <trkpt lat="46.24237" lon="6.75278">
        <ele>1326.9569</ele>
        <time>2013-01-26T09:55:38Z</time>
      </trkpt>
      <trkpt lat="46.24247" lon="6.753">
        <ele>1326.9349</ele>
        <time>2013-01-26T09:55:44Z</time>
      </trkpt>
      <trkpt lat="46.24256" lon="6.75328">
        <ele>1326.2908</ele>
        <time>2013-01-26T09:55:48Z</time>
      </trkpt>
      <trkpt lat="46.2427" lon="6.75348">
        <ele>1325.6539</ele>
        <time>2013-01-26T09:55:51Z</time>
      </trkpt>
      <trkpt lat="46.24283" lon="6.75367">
        <ele>1325.0822</ele>
        <time>2013-01-26T09:55:54Z</time>
      </trkpt>
      <trkpt lat="46.24293" lon="6.75398">
        <ele>1323.7223</ele>
        <time>2013-01-26T09:55:59Z</time>
      </trkpt>
      <trkpt lat="46.24308" lon="6.75422">
        <ele>1323.1969</ele>
        <time>2013-01-26T09:56:03Z</time>
      </trkpt>
      <trkpt lat="46.24324" lon="6.75439">
        <ele>1321.99</ele>
        <time>2013-01-26T09:56:07Z</time>
      </trkpt>
      <trkpt lat="46.24335" lon="6.75461">
        <ele>1321.1915</ele>
        <time>2013-01-26T09:56:13Z</time>
      </trkpt>
      <trkpt lat="46.24353" lon="6.75476">
        <ele>1320.0868</ele>
        <time>2013-01-26T09:56:20Z</time>
      </trkpt>
      <trkpt lat="46.24373" lon="6.7548">
        <ele>1319.6923</ele>
        <time>2013-01-26T09:56:27Z</time>
      </trkpt>
      <trkpt lat="46.2439" lon="6.75475">
        <ele>1319.3047</ele>
        <time>2013-01-26T09:56:33Z</time>
      </trkpt>
      <trkpt lat="46.24412" lon="6.75474">
        <ele>1318.7833</ele>
        <time>2013-01-26T09:56:38Z</time>
      </trkpt>
      <trkpt lat="46.24424" lon="6.75494">
        <ele>1318.1602</ele>
        <time>2013-01-26T09:56:41Z</time>
      </trkpt>
      <trkpt lat="46.24438" lon="6.75524">
        <ele>1317.5769</ele>
        <time>2013-01-26T09:56:44Z</time>
      </trkpt>
      <trkpt lat="46.24457" lon="6.75544">
        <ele>1316.8278</ele>
        <time>2013-01-26T09:56:47Z</time>
      </trkpt>
      <trkpt lat="46.24474" lon="6.75553">
        <ele>1316.3219</ele>
        <time>2013-01-26T09:56:49Z</time>
      </trkpt>
      <trkpt lat="46.24498" lon="6.75565">
        <ele>1314.9404</ele>
        <time>2013-01-26T09:56:52Z</time>
      </trkpt>
      <trkpt lat="46.24515" lon="6.75573">
        <ele>1313.9415</ele>
        <time>2013-01-26T09:56:54Z</time>
      </trkpt>
      <trkpt lat="46.24543" lon="6.75578">
        <ele>1311.8972</ele>
        <time>2013-01-26T09:56:57Z</time>
      </trkpt>
      <trkpt lat="46.24563" lon="6.75582">
        <ele>1310.2047</ele>
        <time>2013-01-26T09:56:59Z</time>
      </trkpt>
      <trkpt lat="46.24584" lon="6.75581">
        <ele>1308.4026</ele>
        <time>2013-01-26T09:57:01Z</time>
      </trkpt>
      <trkpt lat="46.24603" lon="6.75578">
        <ele>1306.4265</ele>
        <time>2013-01-26T09:57:03Z</time>
      </trkpt>
      <trkpt lat="46.24624" lon="6.75577">
        <ele>1304.3024</ele>
        <time>2013-01-26T09:57:05Z</time>
      </trkpt>
      <trkpt lat="46.24646" lon="6.75572">
        <ele>1302.2263</ele>
        <time>2013-01-26T09:57:07Z</time>
      </trkpt>
      <trkpt lat="46.24667" lon="6.75566">
        <ele>1300.3835</ele>
        <time>2013-01-26T09:57:09Z</time>
      </trkpt>
      <trkpt lat="46.24685" lon="6.75555">
        <ele>1298.6157</ele>
        <time>2013-01-26T09:57:11Z</time>
      </trkpt>
      <trkpt lat="46.24702" lon="6.75542">
        <ele>1296.9152</ele>
        <time>2013-01-26T09:57:13Z</time>
      </trkpt>
      <trkpt lat="46.24727" lon="6.75533">
        <ele>1293.7267</ele>
        <time>2013-01-26T09:57:16Z</time>
      </trkpt>
      <trkpt lat="46.24747" lon="6.75528">
        <ele>1292.2526</ele>
        <time>2013-01-26T09:57:18Z</time>
      </trkpt>
      <trkpt lat="46.24766" lon="6.75522">
        <ele>1290.6483</ele>
        <time>2013-01-26T09:57:20Z</time>
      </trkpt>
      <trkpt lat="46.24785" lon="6.75518">
        <ele>1289.1022</ele>
        <time>2013-01-26T09:57:22Z</time>
      </trkpt>
      <trkpt lat="46.24803" lon="6.7551">
        <ele>1285.1702</ele>
        <time>2013-01-26T09:57:26Z</time>
      </trkpt>
    </trkseg>
  </trk>
</gpx>